createdAt,value
2018-05-23T00:00:00.419Z,74.20
2018-05-23T00:02:28.544Z,74.00
2018-05-23T00:04:56.718Z,76.60
2018-05-23T00:07:24.865Z,74.60
2018-05-23T00:09:52.976Z,74.30
2018-05-23T00:12:21.892Z,73.70
2018-05-23T00:14:50.053Z,73.60
2018-05-23T00:17:18.187Z,73.10
2018-05-23T00:19:46.313Z,72.90
2018-05-23T00:22:14.462Z,74.20
2018-05-23T00:24:42.658Z,75.40
2018-05-23T00:27:10.795Z,74.50
2018-05-23T00:29:39.693Z,76.80
2018-05-23T00:32:08.608Z,77.30
2018-05-23T00:34:36.752Z,77.20
2018-05-23T00:37:05.672Z,76.80
2018-05-23T00:39:33.850Z,76.10
2018-05-23T00:42:02.021Z,76.10
2018-05-23T00:44:30.936Z,76.70
2018-05-23T00:46:59.107Z,76.80
2018-05-23T00:49:27.228Z,75.30
2018-05-23T00:51:55.372Z,74.50
2018-05-23T00:54:23.549Z,76.60
2018-05-23T00:56:51.674Z,76.80
2018-05-23T00:59:20.577Z,75.30
2018-05-23T01:01:48.749Z,75.20
2018-05-23T01:04:16.902Z,74.50
2018-05-23T01:06:45.833Z,74.40
2018-05-23T01:09:13.952Z,74.40
2018-05-23T01:11:42.161Z,74.20
2018-05-23T01:14:10.348Z,74.20
2018-05-23T01:16:38.481Z,74.00
2018-05-23T01:19:07.394Z,74.50
2018-05-23T01:21:35.528Z,73.70
2018-05-23T01:24:03.744Z,74.10
2018-05-23T01:26:31.904Z,74.00
2018-05-23T01:29:00.032Z,74.10
2018-05-23T01:31:28.172Z,73.90
2018-05-23T01:33:56.347Z,73.90
2018-05-23T01:36:24.495Z,73.80
2018-05-23T01:38:53.408Z,73.90
2018-05-23T01:41:21.532Z,73.90
2018-05-23T01:43:51.323Z,73.90
2018-05-23T01:46:19.470Z,73.90
2018-05-23T01:48:59.355Z,73.80
2018-05-23T01:51:27.508Z,73.90
2018-05-23T01:53:55.658Z,74.00
2018-05-23T01:56:23.797Z,73.70
2018-05-23T01:58:52.744Z,73.60
2018-05-23T02:01:20.871Z,73.60
2018-05-23T02:03:49.763Z,74.30
2018-05-23T02:06:18.676Z,74.20
2018-05-23T02:08:46.970Z,74.20
2018-05-23T02:11:15.089Z,74.40
2018-05-23T02:13:43.239Z,74.40
2018-05-23T02:16:11.380Z,74.50
2018-05-23T02:18:39.512Z,74.30
2018-05-23T02:21:07.652Z,74.20
2018-05-23T02:23:35.785Z,74.40
2018-05-23T02:26:03.935Z,74.30
2018-05-23T02:28:32.835Z,74.30
2018-05-23T02:31:01.726Z,74.30
2018-05-23T02:33:30.638Z,74.40
2018-05-23T02:35:58.808Z,74.20
2018-05-23T02:38:26.939Z,74.50
2018-05-23T02:40:55.161Z,74.40
2018-05-23T02:43:23.335Z,74.20
2018-05-23T02:45:52.085Z,74.40
2018-05-23T02:48:20.987Z,74.40
2018-05-23T02:50:49.884Z,74.50
2018-05-23T02:53:18.792Z,75.10
2018-05-23T02:55:46.981Z,74.90
2018-05-23T02:58:15.113Z,74.30
2018-05-23T03:00:44.009Z,75.40
2018-05-23T03:03:13.027Z,75.40
2018-05-23T03:05:41.209Z,75.20
2018-05-23T03:08:09.324Z,74.70
2018-05-23T03:10:37.562Z,75.00
2018-05-23T03:13:05.693Z,75.10
2018-05-23T03:15:34.583Z,75.70
2018-05-23T03:18:03.605Z,75.50
2018-05-23T03:20:31.734Z,75.30
2018-05-23T03:22:59.967Z,75.30
2018-05-23T03:25:28.101Z,75.80
2018-05-23T03:27:57.027Z,75.00
2018-05-23T03:30:25.155Z,75.00
2018-05-23T03:32:54.075Z,77.00
2018-05-23T03:35:22.230Z,76.90
2018-05-23T03:37:51.240Z,76.20
2018-05-23T03:40:19.390Z,76.20
2018-05-23T03:42:48.322Z,75.70
2018-05-23T03:45:16.427Z,75.70
2018-05-23T03:47:44.665Z,75.80
2018-05-23T03:50:12.809Z,76.10
2018-05-23T03:52:41.711Z,77.70
2018-05-23T03:55:10.819Z,77.70
2018-05-23T03:57:38.953Z,77.70
2018-05-23T04:00:19.045Z,77.10
2018-05-23T04:02:59.201Z,76.90
2018-05-23T04:05:39.072Z,78.10
2018-05-23T04:08:07.213Z,78.80
2018-05-23T04:10:35.408Z,77.90
2018-05-23T04:13:03.566Z,77.80
2018-05-23T04:15:31.821Z,78.00
2018-05-23T04:17:59.892Z,79.10
2018-05-23T04:20:28.788Z,79.20
2018-05-23T04:22:57.820Z,79.20
2018-05-23T04:25:25.932Z,79.20
2018-05-23T04:27:54.076Z,80.10
2018-05-23T04:30:22.226Z,80.70
2018-05-23T04:32:50.352Z,80.20
2018-05-23T04:35:18.565Z,80.40
2018-05-23T04:37:46.704Z,81.00
2018-05-23T04:40:15.612Z,83.50
2018-05-23T04:42:44.501Z,84.10
2018-05-23T04:45:13.423Z,84.20
2018-05-23T04:47:41.560Z,84.10
2018-05-23T04:50:10.468Z,83.10
2018-05-23T04:52:38.617Z,83.10
2018-05-23T04:55:06.735Z,81.80
2018-05-23T04:57:34.882Z,82.30
2018-05-23T05:00:03.024Z,83.00
2018-05-23T05:02:31.147Z,84.70
2018-05-23T05:04:59.334Z,83.70
2018-05-23T05:07:27.465Z,83.70
2018-05-23T05:09:56.387Z,84.30
2018-05-23T05:12:24.561Z,84.20
2018-05-23T05:14:52.710Z,84.40
2018-05-23T05:17:20.896Z,85.10
2018-05-23T05:19:49.033Z,83.50
2018-05-23T05:22:17.208Z,84.90
2018-05-23T05:24:45.344Z,82.90
2018-05-23T05:27:13.521Z,85.10
2018-05-23T05:29:41.656Z,82.80
2018-05-23T05:32:10.553Z,83.50
2018-05-23T05:34:38.699Z,83.60
2018-05-23T05:37:07.613Z,82.10
2018-05-23T05:39:35.764Z,82.00
2018-05-23T05:42:04.664Z,82.30
2018-05-23T05:44:33.589Z,82.60
2018-05-23T05:47:01.769Z,82.50
2018-05-23T05:49:29.938Z,83.80
2018-05-23T05:51:58.095Z,83.60
2018-05-23T05:54:26.235Z,83.30
2018-05-23T05:56:54.378Z,82.90
2018-05-23T05:59:22.515Z,82.80
2018-05-23T06:01:50.698Z,82.50
2018-05-23T06:04:18.842Z,82.80
2018-05-23T06:06:47.729Z,84.50
2018-05-23T06:09:16.660Z,83.90
2018-05-23T06:11:44.821Z,83.90
2018-05-23T06:14:13.002Z,84.50
2018-05-23T06:16:41.164Z,83.20
2018-05-23T06:19:09.336Z,84.30
2018-05-23T06:21:37.613Z,84.30
2018-05-23T06:24:05.780Z,86.10
2018-05-23T06:26:33.964Z,85.10
2018-05-23T06:29:02.116Z,84.60
2018-05-23T06:31:31.024Z,85.90
2018-05-23T06:33:59.195Z,85.90
2018-05-23T06:36:28.199Z,87.00
2018-05-23T06:38:56.364Z,87.00
2018-05-23T06:41:24.509Z,85.20
2018-05-23T06:43:52.700Z,84.30
2018-05-23T06:46:21.630Z,83.20
2018-05-23T06:48:49.775Z,83.10
2018-05-23T06:51:17.955Z,84.20
2018-05-23T06:53:46.152Z,84.50
2018-05-23T06:56:14.407Z,83.70
2018-05-23T06:58:42.576Z,83.40
2018-05-23T07:01:10.703Z,83.40
2018-05-23T07:03:38.928Z,82.50
2018-05-23T07:06:07.084Z,82.90
2018-05-23T07:08:35.998Z,82.50
2018-05-23T07:11:04.218Z,82.50
2018-05-23T07:13:32.256Z,82.40
2018-05-23T07:16:00.410Z,83.50
2018-05-23T07:18:28.553Z,82.80
2018-05-23T07:20:57.516Z,82.60
2018-05-23T07:23:25.639Z,82.60
2018-05-23T07:25:53.850Z,82.60
2018-05-23T07:28:21.955Z,82.60
2018-05-23T07:30:50.128Z,82.20
2018-05-23T07:33:18.303Z,83.00
2018-05-23T07:35:46.533Z,82.40
2018-05-23T07:38:14.705Z,82.10
2018-05-23T07:40:42.849Z,82.60
2018-05-23T07:43:11.741Z,81.30
2018-05-23T07:45:40.639Z,82.50
2018-05-23T07:48:09.551Z,82.00
2018-05-23T07:50:37.706Z,82.00
2018-05-23T07:53:05.848Z,82.20
2018-05-23T07:55:34.075Z,81.80
2018-05-23T07:58:02.235Z,81.40
2018-05-23T08:00:30.525Z,81.70
2018-05-23T08:02:58.697Z,81.50
2018-05-23T08:05:26.813Z,81.10
2018-05-23T08:07:56.586Z,81.30
2018-05-23T08:10:24.743Z,81.20
2018-05-23T08:12:52.917Z,81.80
2018-05-23T08:15:21.103Z,81.20
2018-05-23T08:17:49.231Z,81.30
2018-05-23T08:20:18.139Z,81.60
2018-05-23T08:22:47.053Z,81.40
2018-05-23T08:25:15.196Z,81.40
2018-05-23T08:27:44.329Z,81.30
2018-05-23T08:30:12.466Z,81.10
2018-05-23T08:32:41.376Z,81.40
2018-05-23T08:35:09.529Z,81.40
2018-05-23T08:37:38.546Z,81.10
2018-05-23T08:40:06.736Z,81.10
2018-05-23T08:42:34.853Z,80.50
2018-05-23T08:45:03.013Z,80.70
2018-05-23T08:47:31.152Z,80.30
2018-05-23T08:49:59.321Z,80.70
2018-05-23T08:52:27.500Z,80.70
2018-05-23T08:55:01.508Z,81.30
2018-05-23T08:57:29.677Z,80.80
2018-05-23T08:59:58.128Z,80.30
2018-05-23T09:02:27.020Z,80.10
2018-05-23T09:04:56.023Z,80.00
2018-05-23T09:07:24.086Z,80.10
2018-05-23T09:09:53.112Z,79.60
2018-05-23T09:12:21.313Z,79.70
2018-05-23T09:14:49.423Z,80.20
2018-05-23T09:17:18.356Z,79.30
2018-05-23T09:19:46.634Z,78.70
2018-05-23T09:22:14.744Z,79.20
2018-05-23T09:24:42.867Z,79.40
2018-05-23T09:27:11.043Z,79.50
2018-05-23T09:29:39.613Z,78.50
2018-05-23T09:32:07.807Z,79.20
2018-05-23T09:34:36.681Z,79.10
2018-05-23T09:37:04.816Z,79.10
2018-05-23T09:39:32.967Z,79.40
2018-05-23T09:42:01.138Z,78.10
2018-05-23T09:44:29.262Z,78.50
2018-05-23T09:46:58.267Z,78.00
2018-05-23T09:49:26.395Z,78.00
2018-05-23T09:51:54.536Z,77.20
2018-05-23T09:54:22.689Z,76.40
2018-05-23T09:56:50.830Z,76.70
2018-05-23T09:59:19.731Z,76.60
2018-05-23T10:01:48.748Z,74.60
2018-05-23T10:04:16.873Z,74.60
2018-05-23T10:06:45.110Z,76.20
2018-05-23T10:09:13.256Z,74.80
2018-05-23T10:11:41.425Z,75.50
2018-05-23T10:14:10.334Z,74.70
2018-05-23T10:16:38.519Z,74.60
2018-05-23T10:19:06.672Z,75.90
2018-05-23T10:21:34.820Z,76.50
2018-05-23T10:24:03.022Z,73.20
2018-05-23T10:26:31.906Z,73.30
2018-05-23T10:29:00.923Z,74.60
2018-05-23T10:31:29.150Z,74.50
2018-05-23T10:33:57.976Z,75.40
2018-05-23T10:36:26.159Z,75.40
2018-05-23T10:38:54.446Z,73.40
2018-05-23T10:41:22.583Z,74.70
2018-05-23T10:43:51.484Z,71.70
2018-05-23T10:46:20.416Z,71.50
2018-05-23T10:48:48.532Z,71.60
2018-05-23T10:51:17.552Z,71.90
2018-05-23T10:53:46.109Z,71.80
2018-05-23T10:56:14.994Z,73.20
2018-05-23T10:58:43.921Z,70.30
2018-05-23T11:01:12.071Z,70.50
2018-05-23T11:03:40.191Z,69.90
2018-05-23T11:06:08.365Z,70.70
2018-05-23T11:08:36.539Z,72.20
2018-05-23T11:11:04.693Z,69.20
2018-05-23T11:13:32.808Z,68.40
2018-05-23T11:16:01.026Z,66.50
2018-05-23T11:18:29.185Z,69.80
2018-05-23T11:20:58.097Z,67.40
2018-05-23T11:23:26.267Z,67.50
2018-05-23T11:25:54.423Z,70.80
2018-05-23T11:28:23.311Z,69.50
2018-05-23T11:30:52.217Z,70.00
2018-05-23T11:33:20.374Z,70.00
2018-05-23T11:35:49.272Z,65.50
2018-05-23T11:38:18.195Z,63.50
2018-05-23T11:40:46.363Z,63.50
2018-05-23T11:43:14.502Z,62.70
2018-05-23T11:45:43.433Z,62.10
2018-05-23T11:48:11.553Z,62.10
2018-05-23T11:50:39.696Z,62.40
2018-05-23T11:53:07.937Z,62.60
2018-05-23T11:55:36.116Z,60.00
2018-05-23T11:58:04.254Z,61.70
2018-05-23T12:00:32.396Z,62.70
2018-05-23T12:03:00.556Z,61.70
2018-05-23T12:05:28.680Z,61.60
2018-05-23T12:07:57.568Z,64.60
2018-05-23T12:10:26.674Z,61.40
2018-05-23T12:12:54.760Z,60.90
2018-05-23T12:15:22.884Z,60.40
2018-05-23T12:17:51.128Z,65.40
2018-05-23T12:20:20.808Z,63.80
2018-05-23T12:22:49.732Z,57.40
2018-05-23T12:25:17.962Z,57.40
2018-05-23T12:27:46.076Z,59.60
2018-05-23T12:30:14.236Z,60.00
2018-05-23T12:32:42.389Z,59.50
2018-05-23T12:35:11.314Z,62.20
2018-05-23T12:37:39.444Z,62.20
2018-05-23T12:40:07.584Z,59.70
2018-05-23T12:42:35.748Z,60.20
2018-05-23T12:45:03.899Z,57.00
2018-05-23T12:47:32.025Z,57.20
2018-05-23T12:50:00.166Z,58.40
2018-05-23T12:52:28.327Z,58.10
2018-05-23T12:54:56.448Z,58.60
2018-05-23T12:57:24.566Z,57.70
2018-05-23T12:59:52.738Z,57.20
2018-05-23T13:02:20.860Z,57.50
2018-05-23T13:04:49.050Z,56.80
2018-05-23T13:07:17.178Z,57.50
2018-05-23T13:09:45.317Z,56.70
2018-05-23T13:12:14.236Z,55.70
2018-05-23T13:14:42.400Z,55.70
2018-05-23T13:17:10.686Z,57.00
2018-05-23T13:19:38.824Z,56.40
2018-05-23T13:22:07.726Z,57.70
2018-05-23T13:24:36.628Z,57.10
2018-05-23T13:27:04.778Z,57.20
2018-05-23T13:29:33.813Z,58.50
2018-05-23T13:32:01.938Z,58.40
2018-05-23T13:34:30.972Z,58.40
2018-05-23T13:36:59.104Z,58.30
2018-05-23T13:39:28.037Z,58.80
2018-05-23T13:41:56.199Z,58.10
2018-05-23T13:44:24.373Z,58.60
2018-05-23T13:46:52.663Z,60.00
2018-05-23T13:49:20.847Z,57.30
2018-05-23T13:51:49.019Z,54.90
2018-05-23T13:54:17.269Z,55.40
2018-05-23T13:56:45.401Z,57.80
2018-05-23T13:59:15.063Z,56.60
2018-05-23T14:01:43.270Z,56.70
2018-05-23T14:04:11.397Z,56.60
2018-05-23T14:06:39.529Z,56.50
2018-05-23T14:09:09.192Z,57.40
2018-05-23T14:11:37.364Z,57.70
2018-05-23T14:14:05.555Z,56.30
2018-05-23T14:16:33.709Z,58.50
2018-05-23T14:19:01.904Z,56.50
2018-05-23T14:21:30.033Z,57.30
2018-05-23T14:23:58.971Z,56.90
2018-05-23T14:26:27.088Z,56.90
2018-05-23T14:28:55.999Z,56.40
2018-05-23T14:31:24.919Z,57.30
2018-05-23T14:33:53.051Z,57.40
2018-05-23T14:36:21.950Z,58.00
2018-05-23T14:38:50.851Z,58.10
2018-05-23T14:41:19.763Z,56.30
2018-05-23T14:43:47.964Z,56.30
2018-05-23T14:46:16.832Z,57.60
2018-05-23T14:48:44.937Z,57.50
2018-05-23T14:51:13.239Z,57.00
2018-05-23T14:53:42.157Z,57.10
2018-05-23T14:56:10.409Z,57.20
2018-05-23T14:58:38.539Z,57.50
2018-05-23T15:01:06.694Z,56.30
2018-05-23T15:03:34.851Z,56.00
2018-05-23T15:06:02.980Z,56.80
2018-05-23T15:08:31.334Z,56.40
2018-05-23T15:10:59.478Z,57.60
2018-05-23T15:13:27.672Z,55.60
2018-05-23T15:15:55.822Z,57.70
2018-05-23T15:18:24.013Z,56.60
2018-05-23T15:20:52.190Z,57.40
2018-05-23T15:23:20.359Z,56.20
2018-05-23T15:25:48.490Z,56.30
2018-05-23T15:28:17.376Z,55.60
2018-05-23T15:30:45.508Z,55.30
2018-05-23T15:33:13.766Z,57.00
2018-05-23T15:35:43.036Z,56.10
2018-05-23T15:38:12.066Z,55.60
2018-05-23T15:40:40.224Z,55.50
2018-05-23T15:43:08.408Z,56.50
2018-05-23T15:45:36.570Z,58.20
2018-05-23T15:48:04.744Z,58.60
2018-05-23T15:50:32.924Z,56.90
2018-05-23T15:53:01.102Z,57.60
2018-05-23T15:55:29.308Z,57.00
2018-05-23T15:58:01.007Z,56.80
2018-05-23T16:00:30.027Z,56.80
2018-05-23T16:02:58.270Z,56.70
2018-05-23T16:05:26.383Z,57.40
2018-05-23T16:07:54.524Z,57.20
2018-05-23T16:10:23.448Z,58.30
2018-05-23T16:12:51.592Z,58.20
2018-05-23T16:15:20.532Z,58.20
2018-05-23T16:17:48.663Z,58.20
2018-05-23T16:20:16.869Z,58.90
2018-05-23T16:22:45.056Z,59.20
2018-05-23T16:25:16.160Z,60.00
2018-05-23T16:27:44.356Z,60.40
2018-05-23T16:30:12.492Z,61.10
2018-05-23T16:32:41.418Z,63.00
2018-05-23T16:35:09.552Z,63.00
2018-05-23T16:37:38.470Z,65.60
2018-05-23T16:40:06.650Z,66.30
2018-05-23T16:42:34.826Z,66.30
2018-05-23T16:45:03.076Z,69.10
2018-05-23T16:47:32.028Z,67.00
2018-05-23T16:50:00.136Z,67.00
2018-05-23T16:52:29.178Z,68.00
2018-05-23T16:54:57.309Z,67.90
2018-05-23T16:57:26.334Z,67.50
2018-05-23T16:59:54.463Z,67.40
2018-05-23T17:02:22.620Z,67.80
2018-05-23T17:04:52.289Z,67.60
2018-05-23T17:07:20.555Z,67.50
2018-05-23T17:09:48.679Z,69.70
2018-05-23T17:12:16.819Z,69.00
2018-05-23T17:14:44.995Z,69.90
2018-05-23T17:17:13.144Z,69.00
2018-05-23T17:19:41.333Z,69.50
2018-05-23T17:22:09.487Z,69.90
2018-05-23T17:24:37.681Z,70.30
2018-05-23T17:27:05.855Z,70.60
2018-05-23T17:29:34.017Z,73.60
2018-05-23T17:32:02.191Z,71.20
2018-05-23T17:34:30.361Z,70.80
2018-05-23T17:36:58.535Z,70.60
2018-05-23T17:39:26.730Z,70.20
2018-05-23T17:41:54.866Z,70.10
2018-05-23T17:44:23.761Z,70.50
2018-05-23T17:46:52.681Z,71.50
2018-05-23T17:49:20.855Z,71.50
2018-05-23T17:51:48.987Z,71.20
2018-05-23T17:54:17.877Z,72.00
2018-05-23T17:56:46.795Z,72.10
2018-05-23T17:59:14.978Z,72.10
2018-05-23T18:01:43.175Z,72.50
2018-05-23T18:04:11.331Z,72.50
2018-05-23T18:06:39.494Z,71.60
2018-05-23T18:09:07.641Z,72.00
2018-05-23T18:11:36.576Z,71.90
2018-05-23T18:14:04.712Z,71.90
2018-05-23T18:16:34.004Z,72.90
2018-05-23T18:19:03.040Z,73.40
2018-05-23T18:21:31.172Z,73.00
2018-05-23T18:24:00.112Z,73.40
2018-05-23T18:26:28.260Z,73.30
2018-05-23T18:28:56.400Z,73.20
2018-05-23T18:31:24.560Z,73.40
2018-05-23T18:33:54.202Z,73.20
2018-05-23T18:36:23.092Z,73.30
2018-05-23T18:38:52.010Z,73.40
2018-05-23T18:41:20.190Z,73.40
2018-05-23T18:43:49.128Z,74.10
2018-05-23T18:46:17.273Z,75.20
2018-05-23T18:48:45.476Z,72.90
2018-05-23T18:51:13.649Z,73.70
2018-05-23T18:53:42.696Z,72.90
2018-05-23T18:56:10.860Z,73.00
2018-05-23T18:58:39.146Z,73.10
2018-05-23T19:01:07.284Z,74.10
2018-05-23T19:03:36.217Z,72.70
2018-05-23T19:06:04.368Z,72.60
2018-05-23T19:08:33.888Z,72.30
2018-05-23T19:11:02.652Z,73.50
2018-05-23T19:13:30.816Z,72.70
2018-05-23T19:15:59.720Z,72.50
2018-05-23T19:18:27.848Z,72.50
2018-05-23T19:20:55.993Z,72.20
2018-05-23T19:23:24.141Z,72.70
2018-05-23T19:25:53.036Z,73.10
2018-05-23T19:28:22.096Z,73.10
2018-05-23T19:30:50.222Z,73.10
2018-05-23T19:33:18.494Z,73.00
2018-05-23T19:35:46.615Z,72.90
2018-05-23T19:38:15.512Z,72.90
2018-05-23T19:40:44.427Z,73.30
2018-05-23T19:43:12.624Z,73.20
2018-05-23T19:45:41.110Z,73.00
2018-05-23T19:48:09.617Z,72.80
2018-05-23T19:50:37.740Z,73.80
2018-05-23T19:53:05.876Z,74.70
2018-05-23T19:55:34.040Z,73.70
2018-05-23T19:58:02.175Z,73.20
2018-05-23T20:00:30.323Z,75.10
2018-05-23T20:02:59.284Z,75.40
2018-05-23T20:05:27.527Z,75.30
2018-05-23T20:07:55.697Z,75.40
2018-05-23T20:10:23.821Z,75.40
2018-05-23T20:12:51.962Z,75.90
2018-05-23T20:15:20.107Z,75.50
2018-05-23T20:17:48.255Z,75.20
2018-05-23T20:20:17.147Z,74.90
2018-05-23T20:22:46.117Z,74.20
2018-05-23T20:25:14.248Z,74.20
2018-05-23T20:27:42.371Z,75.40
2018-05-23T20:30:11.692Z,74.60
2018-05-23T20:32:40.599Z,76.00
2018-05-23T20:35:08.728Z,76.00
2018-05-23T20:37:36.873Z,74.60
2018-05-23T20:40:05.016Z,74.80
2018-05-23T20:42:33.172Z,74.30
2018-05-23T20:45:02.109Z,74.10
2018-05-23T20:47:30.239Z,74.00
2018-05-23T20:49:59.173Z,74.90
2018-05-23T20:52:27.317Z,74.10
2018-05-23T20:54:55.445Z,74.20
2018-05-23T20:57:23.567Z,75.10
2018-05-23T20:59:51.723Z,74.20
2018-05-23T21:02:20.643Z,74.00
2018-05-23T21:04:48.779Z,74.00
2018-05-23T21:07:17.693Z,74.00
2018-05-23T21:09:45.841Z,74.00
2018-05-23T21:12:14.773Z,74.40
2018-05-23T21:14:42.909Z,74.40
2018-05-23T21:17:11.813Z,74.50
2018-05-23T21:19:40.717Z,74.50
2018-05-23T21:22:08.875Z,74.50
2018-05-23T21:24:37.767Z,73.50
2018-05-23T21:27:05.919Z,73.50
2018-05-23T21:29:34.051Z,74.40
2018-05-23T21:32:02.295Z,74.10
2018-05-23T21:34:30.513Z,74.30
2018-05-23T21:36:58.635Z,74.80
2018-05-23T21:39:27.569Z,74.30
2018-05-23T21:41:55.697Z,74.30
2018-05-23T21:44:24.725Z,73.50
2018-05-23T21:46:52.847Z,73.50
2018-05-23T21:49:20.977Z,73.30
2018-05-23T21:51:49.157Z,74.20
2018-05-23T21:54:17.288Z,75.70
2018-05-23T21:56:45.429Z,74.60
2018-05-23T21:59:13.589Z,74.90
2018-05-23T22:01:41.743Z,77.00
2018-05-23T22:04:09.905Z,75.90
2018-05-23T22:06:38.031Z,76.70
2018-05-23T22:09:06.238Z,77.10
2018-05-23T22:11:34.410Z,75.50
2018-05-23T22:14:02.555Z,74.60
2018-05-23T22:16:31.489Z,74.60
2018-05-23T22:18:59.644Z,74.60
2018-05-23T22:21:27.780Z,73.90
2018-05-23T22:23:55.924Z,73.80
2018-05-23T22:26:24.056Z,73.90
2018-05-23T22:28:52.948Z,74.40
2018-05-23T22:31:21.978Z,74.30
2018-05-23T22:33:50.146Z,74.30
2018-05-23T22:36:18.280Z,75.50
2018-05-23T22:38:47.214Z,74.90
2018-05-23T22:41:15.356Z,75.50
2018-05-23T22:43:44.280Z,74.80
2018-05-23T22:46:12.554Z,74.70
2018-05-23T22:48:40.718Z,74.80
2018-05-23T22:51:08.856Z,74.70
2018-05-23T22:53:37.765Z,75.50
2018-05-23T22:56:05.904Z,75.40
2018-05-23T22:58:35.540Z,74.90
2018-05-23T23:01:04.432Z,75.00
2018-05-23T23:03:33.437Z,75.00
2018-05-23T23:06:01.572Z,75.00
2018-05-23T23:08:29.788Z,74.40
2018-05-23T23:10:57.936Z,74.00
2018-05-23T23:13:26.866Z,74.30
2018-05-23T23:15:55.128Z,74.30
2018-05-23T23:18:23.256Z,74.10
2018-05-23T23:20:51.386Z,74.40
2018-05-23T23:23:19.570Z,74.40
2018-05-23T23:25:47.700Z,74.30
2018-05-23T23:28:16.602Z,74.60
2018-05-23T23:30:45.518Z,74.50
2018-05-23T23:33:13.655Z,74.50
2018-05-23T23:35:42.680Z,74.60
2018-05-23T23:38:10.812Z,74.50
2018-05-23T23:40:39.032Z,75.10
2018-05-23T23:43:07.159Z,74.80
2018-05-23T23:45:35.366Z,75.00
2018-05-23T23:48:03.495Z,74.80
2018-05-23T23:50:31.707Z,74.50
2018-05-23T23:52:59.896Z,74.70
2018-05-23T23:55:28.036Z,74.80
2018-05-23T23:57:56.935Z,74.60
